Airport View

Enter AWOS ICAO identifier for current METAR.

ex. KFNL

KCKZ 202215Z AUTO 00000KT 10SM CLR 18/16 A3023 RMK AO2

20 Oct 2020 22:20

Frequency: 126.325

Phone: 215-257-7291

Other Area AWOS: KUKT - KDYL - KXLL - KPTW

TAF KABE 201725Z 2018/2118 23005KT P6SM SCT025 FM202200 VRB03KT P6SM FEW035 FM210500 00000KT P6SM BKN025 FM210600 00000KT 6SM BR OVC015 FM210800 00000KT 4SM -DZ BR OVC008 FM211000 00000KT 2SM -DZ BR OVC003 FM211400 VRB03KT 4SM -DZ BR OVC008 FM211600 21005KT P6SM BKN015